Time;durP1;ratioP1;P1;durP2;ratioP2;P2;SDS_P1;SDS_P2;PMS_P1;PMS_P2;Temp;Humidity;BMP_temperature;BMP_pressure;BME280_temperature;BME280_humidity;BME280_pressure;Samples;Min_cycle;Max_cycle;Signal;HPM_P1;HPM_P2
2023/04/07 00:00:10;;;;;;;286.37;87.77;;;;;;;7.43;50.43;99380.09;334758;29;3791;-74
2023/04/07 00:00:20;;;;;;;287.42;88.38;;;;;;;7.44;50.38;99377.44;328683;29;3137;-74
2023/04/07 00:00:31;;;;;;;287.83;88.73;;;;;;;7.43;50.30;99378.34;330970;29;5508;-74
2023/04/07 00:00:41;;;;;;;287.90;89.60;;;;;;;7.45;49.92;99371.31;331783;29;5779;-75
2023/04/07 00:00:52;;;;;;;287.33;89.13;;;;;;;7.45;49.84;99373.94;330567;29;1226;-75
2023/04/07 00:01:02;;;;;;;287.00;88.65;;;;;;;7.46;49.58;99375.63;322913;30;5266;-75
2023/04/07 00:01:13;;;;;;;285.97;88.00;;;;;;;7.46;49.71;99375.63;326020;30;3264;-75
2023/04/07 00:01:23;;;;;;;285.23;87.55;;;;;;;7.49;49.93;99378.16;326435;29;5255;-75
2023/04/07 00:01:33;;;;;;;285.43;88.37;;;;;;;7.49;49.91;99365.13;328768;30;3899;-75
2023/04/07 00:01:44;;;;;;;286.80;88.97;;;;;;;7.37;49.79;99375.94;327559;29;5675;-74
2023/04/07 00:01:54;;;;;;;285.17;87.90;;;;;;;7.32;49.73;99372.66;327404;30;1603;-74
2023/04/07 00:02:05;;;;;;;283.25;86.68;;;;;;;7.32;49.36;99388.25;321658;30;4202;-74
2023/04/07 00:02:15;;;;;;;285.97;87.83;;;;;;;7.30;49.85;99369.25;319754;30;5331;-74
2023/04/07 00:02:27;;;;;;;288.92;88.47;;;;;;;7.25;49.73;99371.13;320500;30;5206;-74
2023/04/07 00:02:37;;;;;;;288.55;87.90;;;;;;;7.22;49.57;99373.81;324894;30;3253;-74
2023/04/07 00:02:48;;;;;;;288.40;87.63;;;;;;;7.15;49.78;99362.75;318531;30;4162;-74
2023/04/07 00:03:01;;;;;;;287.57;88.13;;;;;;;7.23;50.01;99372.94;319942;30;3670;-74
2023/04/07 00:03:11;;;;;;;287.92;88.82;;;;;;;7.24;49.26;99375.47;320159;30;4442;-74
2023/04/07 00:03:22;;;;;;;286.85;88.38;;;;;;;7.23;49.51;99373.78;321733;30;3199;-74
2023/04/07 00:03:32;;;;;;;285.70;87.85;;;;;;;7.14;49.92;99374.06;319051;30;4107;-74
2023/04/07 00:03:43;;;;;;;283.40;86.20;;;;;;;7.17;49.72;99370.50;320214;30;3347;-74
2023/04/07 00:03:53;;;;;;;282.92;86.72;;;;;;;7.18;50.17;99369.63;320612;30;4227;-74
2023/04/07 00:04:04;;;;;;;282.50;85.67;;;;;;;7.15;49.62;99374.91;320663;30;3356;-74
2023/04/07 00:04:15;;;;;;;284.67;85.60;;;;;;;7.14;49.92;99371.47;319333;30;5683;-74
2023/04/07 00:04:25;;;;;;;286.27;86.13;;;;;;;7.16;50.28;99381.81;320769;30;2641;-74
2023/04/07 00:04:35;;;;;;;288.97;88.27;;;;;;;7.19;50.00;99376.53;315301;31;4429;-75
2023/04/07 00:04:46;;;;;;;289.55;89.75;;;;;;;7.22;50.03;99376.44;318848;30;2903;-75
2023/04/07 00:04:57;;;;;;;289.87;90.20;;;;;;;7.24;50.25;99374.63;315228;30;6059;-75
2023/04/07 00:05:07;;;;;;;287.73;88.82;;;;;;;7.28;49.94;99376.25;315336;30;3959;-75
2023/04/07 00:05:18;;;;;;;286.60;89.13;;;;;;;7.25;50.23;99373.72;312568;31;5711;-74
2023/04/07 00:05:28;;;;;;;286.70;88.63;;;;;;;7.27;49.89;99371.94;313105;31;3982;-75
2023/04/07 00:05:39;;;;;;;287.90;89.45;;;;;;;7.27;49.94;99377.13;311280;31;5946;-75
2023/04/07 00:05:49;;;;;;;287.73;88.17;;;;;;;7.23;50.58;99375.53;315185;31;1326;-75
2023/04/07 00:06:00;;;;;;;287.30;88.13;;;;;;;7.22;50.06;99374.69;310964;31;3785;-75
2023/04/07 00:06:10;;;;;;;286.03;86.90;;;;;;;7.26;50.35;99378.03;310978;31;2574;-75
2023/04/07 00:06:20;;;;;;;285.42;86.75;;;;;;;7.29;50.79;99370.13;306963;31;5956;-75
2023/04/07 00:06:31;;;;;;;286.17;87.13;;;;;;;7.32;50.37;99375.25;309986;31;2811;-75
2023/04/07 00:06:42;;;;;;;289.10;89.45;;;;;;;7.27;50.57;99374.53;306562;31;5503;-75
2023/04/07 00:06:52;;;;;;;288.17;88.97;;;;;;;7.28;50.41;99373.63;308309;31;3941;-75
2023/04/07 00:07:03;;;;;;;287.30;89.13;;;;;;;7.30;50.25;99369.25;303697;32;5847;-75
2023/04/07 00:07:13;;;;;;;282.98;87.75;;;;;;;7.28;49.99;99371.88;303906;31;5258;-75
2023/04/07 00:07:24;;;;;;;283.43;88.37;;;;;;;7.34;50.13;99370.84;300230;32;5806;-75
2023/04/07 00:07:34;;;;;;;284.55;88.72;;;;;;;7.25;50.24;99363.31;302956;32;6137;-75
2023/04/07 00:07:45;;;;;;;288.80;91.33;;;;;;;7.30;50.50;99366.63;301030;32;5964;-75
2023/04/07 00:07:55;;;;;;;289.20;90.25;;;;;;;7.22;49.92;99371.22;302969;32;4443;-75
2023/04/07 00:08:06;;;;;;;291.13;91.57;;;;;;;7.17;49.56;99373.13;301954;32;5243;-74
2023/04/07 00:08:17;;;;;;;289.57;90.13;;;;;;;7.14;49.89;99368.00;305294;32;2924;-74
2023/04/07 00:08:27;;;;;;;290.17;90.57;;;;;;;7.14;50.42;99375.81;301346;32;5896;-74
2023/04/07 00:08:38;;;;;;;287.80;89.45;;;;;;;7.17;50.09;99370.50;299624;32;4342;-75
2023/04/07 00:08:48;;;;;;;287.50;88.77;;;;;;;7.17;50.39;99378.31;298145;32;5778;-75
2023/04/07 00:08:59;;;;;;;285.92;88.40;;;;;;;7.15;50.20;99374.91;297100;32;5117;-75
2023/04/07 00:09:10;;;;;;;286.70;89.30;;;;;;;7.16;50.21;99374.00;292958;33;5903;-75
2023/04/07 00:09:20;;;;;;;286.48;90.20;;;;;;;7.18;50.08;99377.41;290487;33;3818;-75
2023/04/07 00:09:30;;;;;;;287.85;90.80;;;;;;;7.15;49.99;99369.72;291355;33;7066;-75
2023/04/07 00:09:41;;;;;;;288.37;89.87;;;;;;;7.15;50.26;99374.91;291499;33;6936;-75
2023/04/07 00:09:51;;;;;;;288.63;89.78;;;;;;;7.17;49.91;99373.13;288121;33;4282;-75
2023/04/07 00:10:02;;;;;;;287.47;88.73;;;;;;;7.18;49.87;99374.81;290898;33;6243;-75
2023/04/07 00:10:12;;;;;;;288.00;89.43;;;;;;;7.21;50.48;99369.53;285842;33;5915;-75
2023/04/07 00:10:23;;;;;;;286.88;89.53;;;;;;;7.25;49.86;99371.13;284273;34;4798;-75
2023/04/07 00:10:34;;;;;;;286.73;89.18;;;;;;;7.27;50.37;99370.19;285044;34;3457;-75
2023/04/07 00:10:44;;;;;;;286.63;88.15;;;;;;;7.31;49.79;99377.00;284914;34;4710;-75
2023/04/07 00:10:55;;;;;;;288.03;89.50;;;;;;;7.30;50.21;99369.25;280047;34;7341;-74
2023/04/07 00:11:06;;;;;;;288.98;90.57;;;;;;;7.30;49.65;99374.44;283667;34;3989;-74
2023/04/07 00:11:16;;;;;;;289.83;92.80;;;;;;;7.27;49.69;99371.94;279549;34;7598;-75
2023/04/07 00:11:26;;;;;;;287.13;90.83;;;;;;;7.26;49.88;99373.69;280257;34;8493;-75
2023/04/07 00:13:10;;;;;;;278.63;82.37;;;;;;;7.40;49.58;99380.19;2491120;27;20498;-75
2023/04/07 00:13:20;;;;;;;283.77;85.37;;;;;;;7.41;49.73;99387.09;350002;28;5322;-74
2023/04/07 00:13:31;;;;;;;283.95;85.18;;;;;;;7.38;49.55;99381.97;348839;28;1488;-74
2023/04/07 00:13:41;;;;;;;286.23;87.77;;;;;;;7.35;49.91;99377.75;344891;28;4286;-74
2023/04/07 00:13:51;;;;;;;286.17;87.80;;;;;;;7.32;49.56;99383.06;348386;28;1272;-74
2023/04/07 00:14:02;;;;;;;287.53;89.20;;;;;;;7.31;49.88;99370.94;345871;28;4509;-74
2023/04/07 00:14:12;;;;;;;287.02;88.47;;;;;;;7.32;49.91;99380.44;348321;28;3486;-74
2023/04/07 00:14:23;;;;;;;289.20;88.27;;;;;;;7.33;49.95;99375.19;348316;28;3960;-74
2023/04/07 00:14:33;;;;;;;287.25;87.57;;;;;;;7.36;49.82;99379.47;347158;28;5408;-75
2023/04/07 00:14:44;;;;;;;285.77;86.60;;;;;;;7.37;50.03;99377.69;348758;28;1210;-74
2023/04/07 00:14:54;;;;;;;288.60;87.60;;;;;;;7.37;49.82;99378.53;345446;28;4181;-76
2023/04/07 00:15:05;;;;;;;289.93;87.33;;;;;;;7.31;50.18;99376.16;348235;28;3715;-75
2023/04/07 00:15:15;;;;;;;288.63;87.45;;;;;;;7.24;49.97;99365.06;347811;28;4313;-74
2023/04/07 00:15:26;;;;;;;288.77;88.27;;;;;;;7.24;50.21;99375.47;347117;28;5650;-73
2023/04/07 00:15:36;;;;;;;288.90;88.75;;;;;;;7.20;50.58;99380.81;345992;28;4635;-73
2023/04/07 00:15:47;;;;;;;289.30;88.20;;;;;;;7.18;50.51;99374.81;346936;28;3451;-73
2023/04/07 00:15:57;;;;;;;288.85;86.70;;;;;;;7.18;50.56;99377.41;348514;28;3896;-73
2023/04/07 00:16:08;;;;;;;287.80;85.63;;;;;;;7.18;50.70;99370.47;344667;28;4182;-73
2023/04/07 00:16:18;;;;;;;286.35;85.55;;;;;;;7.16;50.42;99368.81;344757;28;3893;-74
2023/04/07 00:16:28;;;;;;;284.77;85.87;;;;;;;7.18;50.37;99374.81;343690;28;3500;-74
2023/04/07 00:16:39;;;;;;;285.48;86.93;;;;;;;7.17;50.37;99373.13;343794;28;3661;-74
2023/04/07 00:16:49;;;;;;;286.70;88.07;;;;;;;7.20;50.66;99384.28;343216;28;3577;-74
2023/04/07 00:17:00;;;;;;;287.50;87.00;;;;;;;7.19;50.61;99376.53;345101;28;3908;-74
2023/04/07 00:17:12;;;;;;;288.23;87.20;;;;;;;7.22;50.87;99377.28;343799;28;5410;-76
2023/04/07 00:17:22;;;;;;;288.08;86.10;;;;;;;7.24;50.88;99379.84;345774;28;1379;-75
2023/04/07 00:17:32;;;;;;;285.65;87.28;;;;;;;7.24;50.96;99379.84;342809;28;5847;-75
2023/04/07 00:17:43;;;;;;;285.00;88.10;;;;;;;7.20;50.84;99376.47;341519;28;1639;-75
2023/04/07 00:17:53;;;;;;;286.70;91.03;;;;;;;7.24;50.66;99382.44;343491;28;3352;-74
2023/04/07 00:18:04;;;;;;;286.00;89.20;;;;;;;7.25;50.71;99371.13;344600;28;1191;-74
2023/04/07 00:18:14;;;;;;;287.93;88.03;;;;;;;7.26;50.80;99367.63;344064;28;5660;-74
2023/04/07 00:18:24;;;;;;;285.70;85.00;;;;;;;7.29;50.86;99383.16;345618;28;3891;-74
2023/04/07 00:18:35;;;;;;;286.37;86.93;;;;;;;7.28;50.54;99376.25;341401;28;4128;-74
2023/04/07 00:18:45;;;;;;;284.88;87.22;;;;;;;7.30;50.43;99374.44;345201;28;3768;-75
2023/04/07 00:18:56;;;;;;;286.07;88.30;;;;;;;7.31;50.36;99378.75;343581;28;5419;-74
2023/04/07 00:19:06;;;;;;;285.30;86.57;;;;;;;7.30;50.26;99369.25;344913;28;3769;-74
2023/04/07 00:19:17;;;;;;;286.03;88.07;;;;;;;7.27;50.37;99364.13;345909;28;5744;-74
2023/04/07 00:19:27;;;;;;;286.95;88.65;;;;;;;7.32;50.25;99370.91;343774;28;3833;-74
2023/04/07 00:19:37;;;;;;;287.83;89.70;;;;;;;7.32;50.17;99375.25;346171;28;3449;-75
2023/04/07 00:19:48;;;;;;;287.38;87.97;;;;;;;7.24;50.23;99374.63;346175;28;3932;-75
2023/04/07 00:19:58;;;;;;;287.53;87.67;;;;;;;7.22;50.21;99374.69;341042;28;5248;-75
2023/04/07 00:20:09;;;;;;;286.63;86.93;;;;;;;7.23;50.09;99372.94;345347;28;3647;-75
2023/04/07 00:20:20;;;;;;;285.73;86.85;;;;;;;7.19;50.51;99376.53;343424;28;3568;-74
2023/04/07 00:20:30;;;;;;;288.27;87.97;;;;;;;7.17;50.12;99370.50;343245;28;1417;-74
2023/04/07 00:20:41;;;;;;;287.90;88.30;;;;;;;7.18;50.23;99380.88;339348;28;5834;-73
2023/04/07 00:20:51;;;;;;;287.70;88.47;;;;;;;7.12;50.29;99375.84;345801;28;996;-73
2023/04/07 00:21:01;;;;;;;284.98;87.03;;;;;;;7.10;50.19;99371.59;340965;28;5902;-74
2023/04/07 00:21:12;;;;;;;286.10;86.20;;;;;;;7.14;50.19;99373.22;343117;28;1797;-74
2023/04/07 00:21:22;;;;;;;288.50;87.15;;;;;;;7.16;50.12;99372.25;340033;28;6013;-73
2023/04/07 00:21:33;;;;;;;288.00;87.27;;;;;;;7.16;50.00;99371.41;339742;29;1351;-75
2023/04/07 00:21:43;;;;;;;286.13;87.83;;;;;;;7.18;49.92;99367.88;337778;29;3206;-74
2023/04/07 00:21:55;;;;;;;284.38;87.75;;;;;;;7.13;49.85;99371.50;341562;28;3699;-75
2023/04/07 00:22:05;;;;;;;286.65;88.20;;;;;;;7.12;49.97;99367.19;340672;28;5565;-75
2023/04/07 00:22:16;;;;;;;288.73;87.53;;;;;;;7.15;50.15;99374.91;339430;29;1573;-74
2023/04/07 00:22:27;;;;;;;288.88;87.55;;;;;;;7.18;50.31;99372.22;337170;29;5560;-74
2023/04/07 00:22:37;;;;;;;286.57;87.37;;;;;;;7.13;49.54;99371.50;338195;29;1187;-74
2023/04/07 00:22:48;;;;;;;286.80;88.40;;;;;;;7.18;50.25;99375.66;336650;29;4821;-75
2023/04/07 00:22:58;;;;;;;288.17;89.50;;;;;;;7.20;50.14;99375.63;339018;29;3760;-75
2023/04/07 00:23:09;;;;;;;289.33;89.57;;;;;;;7.19;50.13;99371.31;340126;28;3959;-74
2023/04/07 00:23:20;;;;;;;286.60;88.55;;;;;;;7.21;49.94;99374.72;335368;29;5894;-75
2023/04/07 00:23:33;;;;;;;285.50;87.47;;;;;;;7.23;50.55;99375.53;336294;29;3900;-74
2023/04/07 00:23:43;;;;;;;285.25;89.20;;;;;;;7.20;50.28;99368.66;337362;29;3175;-74
2023/04/07 00:23:54;;;;;;;285.58;88.93;;;;;;;7.22;50.02;99377.28;327700;29;3976;-74
2023/04/07 00:24:04;;;;;;;286.73;89.07;;;;;;;7.24;50.28;99370.28;329266;29;6116;-74
2023/04/07 00:24:15;;;;;;;288.63;89.25;;;;;;;7.26;50.09;99376.28;326485;29;3979;-73
2023/04/07 00:24:26;;;;;;;287.83;88.45;;;;;;;7.24;50.43;99378.09;329037;29;3419;-74
2023/04/07 00:24:38;;;;;;;286.40;86.60;;;;;;;7.21;49.99;99374.72;324516;30;4172;-74
2023/04/07 00:24:48;;;;;;;285.67;86.97;;;;;;;7.23;50.23;99378.13;326629;30;1327;-75
2023/04/07 00:24:58;;;;;;;286.10;87.85;;;;;;;7.23;50.30;99367.72;322723;30;5365;-74
2023/04/07 00:25:09;;;;;;;286.37;88.63;;;;;;;7.26;50.27;99373.69;326971;30;776;-74
2023/04/07 00:25:20;;;;;;;288.10;88.53;;;;;;;7.26;50.51;99370.22;322404;30;3915;-74
2023/04/07 00:25:30;;;;;;;289.65;89.18;;;;;;;7.27;50.56;99375.38;321655;30;3928;-74
2023/04/07 00:25:40;;;;;;;288.57;89.57;;;;;;;7.28;50.09;99373.63;318118;30;4251;-74
2023/04/07 00:25:51;;;;;;;286.13;88.80;;;;;;;7.29;50.39;99368.38;321825;30;3757;-74
2023/04/07 00:26:01;;;;;;;285.80;88.43;;;;;;;7.31;50.33;99370.94;321006;30;5605;-74
2023/04/07 00:26:12;;;;;;;285.10;87.47;;;;;;;7.30;50.03;99371.84;326846;30;1457;-74
2023/04/07 00:26:24;;;;;;;284.75;86.85;;;;;;;7.30;50.10;99370.09;320887;30;5270;-74
2023/04/07 00:26:34;;;;;;;286.40;86.75;;;;;;;7.27;50.53;99371.94;320359;30;3802;-75
2023/04/07 00:26:45;;;;;;;286.00;87.22;;;;;;;7.26;50.39;99368.47;314138;31;4919;-75
2023/04/07 00:26:55;;;;;;;286.17;87.50;;;;;;;7.29;50.49;99367.53;318671;31;971;-75
2023/04/07 00:27:06;;;;;;;285.50;88.60;;;;;;;7.24;50.20;99370.28;314708;31;5888;-74
2023/04/07 00:27:16;;;;;;;285.50;87.77;;;;;;;7.21;50.00;99366.91;316695;31;2527;-74
2023/04/07 00:27:26;;;;;;;284.25;87.07;;;;;;;7.18;50.64;99369.63;313640;31;4380;-74
2023/04/07 00:27:37;;;;;;;285.13;87.77;;;;;;;7.15;50.33;99369.72;314164;31;6304;-74
2023/04/07 00:27:47;;;;;;;287.33;89.80;;;;;;;7.17;50.40;99373.13;310411;31;5030;-74
2023/04/07 00:27:58;;;;;;;289.50;91.65;;;;;;;7.18;50.79;99377.41;308957;31;3275;-74
2023/04/07 00:28:09;;;;;;;291.10;93.18;;;;;;;7.15;50.45;99377.50;310473;31;4366;-74
2023/04/07 00:28:19;;;;;;;291.00;92.63;;;;;;;7.13;49.97;99374.09;311659;31;3411;-74
2023/04/07 00:28:29;;;;;;;289.23;90.63;;;;;;;7.15;50.84;99378.38;308799;31;4487;-74
2023/04/07 00:28:40;;;;;;;286.87;88.50;;;;;;;7.15;50.56;99375.75;305603;32;3298;-74
2023/04/07 00:28:51;;;;;;;285.02;86.78;;;;;;;7.15;50.63;99374.91;300811;32;4095;-74
2023/04/07 00:29:01;;;;;;;285.23;87.28;;;;;;;7.10;50.73;99371.59;300429;32;3399;-74
2023/04/07 00:29:12;;;;;;;282.53;85.47;;;;;;;7.06;50.73;99370.84;301127;32;4308;-74
2023/04/07 00:29:22;;;;;;;282.92;86.25;;;;;;;7.06;50.78;99364.78;300794;32;3435;-75
2023/04/07 00:29:32;;;;;;;283.57;86.87;;;;;;;7.08;50.72;99374.25;297439;32;4233;-75
2023/04/07 00:29:45;;;;;;;285.37;88.30;;;;;;;7.11;50.78;99374.16;297919;33;3385;-75
2023/04/07 00:29:55;;;;;;;287.55;88.07;;;;;;;7.07;50.78;99369.09;296254;33;4460;-75
2023/04/07 00:30:06;;;;;;;288.80;89.05;;;;;;;7.08;50.91;99373.41;291612;33;6831;-74
2023/04/07 00:30:17;;;;;;;287.47;89.03;;;;;;;7.09;50.84;99369.91;291346;33;4636;-74
2023/04/07 00:30:27;;;;;;;286.80;90.50;;;;;;;7.09;50.57;99370.75;293190;33;3424;-74
2023/04/07 00:30:39;;;;;;;285.40;89.17;;;;;;;7.09;50.70;99382.91;289801;33;4484;-74
2023/04/07 00:30:49;;;;;;;286.83;89.18;;;;;;;7.05;50.82;99373.50;289868;33;4431;-74
2023/04/07 00:31:00;;;;;;;285.90;87.38;;;;;;;7.03;50.96;99362.28;288101;33;4023;-74
2023/04/07 00:31:10;;;;;;;287.17;88.30;;;;;;;7.06;50.90;99370.00;288519;34;5175;-74
2023/04/07 00:31:20;;;;;;;287.48;88.53;;;;;;;7.08;50.75;99373.41;286797;34;4426;-75
2023/04/07 00:31:31;;;;;;;289.73;89.43;;;;;;;7.08;50.79;99369.03;284639;34;4329;-75
2023/04/07 00:31:41;;;;;;;288.08;88.55;;;;;;;7.11;50.50;99371.56;287459;34;3946;-74
2023/04/07 00:31:52;;;;;;;288.20;89.83;;;;;;;7.12;50.69;99375.84;283165;34;5736;-75
2023/04/07 00:32:02;;;;;;;286.90;89.63;;;;;;;7.06;50.71;99370.00;281996;34;6601;-75
2023/04/07 00:32:12;;;;;;;289.05;90.72;;;;;;;7.03;51.12;99377.88;282902;34;5160;-75
2023/04/07 00:32:23;;;;;;;291.27;90.57;;;;;;;7.03;50.86;99375.28;282447;34;6772;-74
2023/04/07 00:32:33;;;;;;;290.35;90.50;;;;;;;7.05;51.06;99378.69;277890;34;6753;-74
2023/04/07 00:32:44;;;;;;;289.60;90.07;;;;;;;7.06;50.94;99376.03;278545;35;4354;-74
2023/04/07 00:32:54;;;;;;;285.77;88.50;;;;;;;7.11;50.63;99379.34;277269;35;3908;-74
2023/04/07 00:33:05;;;;;;;285.57;87.97;;;;;;;7.09;51.16;99370.75;270948;35;6178;-74
2023/04/07 00:33:15;;;;;;;286.98;88.63;;;;;;;7.14;50.70;99368.00;269470;35;5854;-74
2023/04/07 00:33:28;;;;;;;286.80;87.70;;;;;;;7.15;51.22;99374.91;272008;36;4052;-74
2023/04/07 00:33:38;;;;;;;287.20;87.68;;;;;;;7.11;51.06;99368.94;276060;35;4499;-74
2023/04/07 00:35:10;;;;;;;281.25;85.07;;;;;;;7.13;50.38;99361.09;2477408;27;20260;-73
2023/04/07 00:35:21;;;;;;;284.83;87.47;;;;;;;7.19;50.53;99373.91;350425;28;3275;-73
2023/04/07 00:35:31;;;;;;;287.38;87.45;;;;;;;7.18;50.50;99369.63;347370;28;3623;-73
2023/04/07 00:35:42;;;;;;;288.30;88.83;;;;;;;7.21;50.33;99374.72;344837;28;5725;-73
2023/04/07 00:35:53;;;;;;;286.42;87.45;;;;;;;7.22;50.36;99376.44;345710;28;3965;-73
2023/04/07 00:36:03;;;;;;;284.75;87.00;;;;;;;7.19;50.64;99368.72;346995;28;3526;-75
2023/04/07 00:36:14;;;;;;;285.23;86.85;;;;;;;7.21;50.98;99369.53;344905;28;4239;-74
2023/04/07 00:36:26;;;;;;;284.50;87.33;;;;;;;7.23;50.70;99376.38;347364;28;3641;-74
2023/04/07 00:36:36;;;;;;;285.08;87.90;;;;;;;7.22;50.35;99379.03;344683;28;5159;-73
2023/04/07 00:36:50;;;;;;;285.63;88.13;;;;;;;7.19;50.41;99371.31;344950;28;993;-73
2023/04/07 00:37:01;;;;;;;287.00;88.22;;;;;;;7.17;50.55;99378.31;346011;28;3999;-75
2023/04/07 00:37:11;;;;;;;287.63;88.23;;;;;;;7.15;50.93;99369.72;349044;28;964;-74
2023/04/07 00:37:24;;;;;;;289.45;89.78;;;;;;;7.15;50.44;99375.75;344499;28;3909;-74
2023/04/07 00:37:34;;;;;;;289.10;88.72;;;;;;;7.12;50.98;99373.25;347380;28;3513;-74
2023/04/07 00:37:45;;;;;;;285.92;87.22;;;;;;;7.15;51.08;99374.91;346336;28;3315;-73
2023/04/07 00:37:55;;;;;;;285.50;86.50;;;;;;;7.16;51.07;99380.06;346915;28;3942;-73
2023/04/07 00:38:06;;;;;;;284.52;86.20;;;;;;;7.15;50.75;99377.50;346109;28;3446;-73
2023/04/07 00:38:17;;;;;;;288.20;87.25;;;;;;;7.13;51.30;99368.91;347003;28;3597;-75
2023/04/07 00:38:27;;;;;;;295.70;90.87;;;;;;;7.12;51.32;99370.66;344091;28;3540;-75
2023/04/07 00:38:37;;;;;;;299.73;91.28;;;;;;;7.12;51.20;99375.00;345203;28;4380;-74
2023/04/07 00:38:48;;;;;;;299.77;92.77;;;;;;;7.14;50.94;99378.41;344095;28;3121;-74
2023/04/07 00:38:58;;;;;;;292.13;88.75;;;;;;;7.15;51.04;99380.13;345032;28;4249;-74
2023/04/07 00:39:09;;;;;;;287.63;88.27;;;;;;;7.18;51.13;99375.66;344511;28;5743;-74
2023/04/07 00:39:19;;;;;;;285.80;86.82;;;;;;;7.19;50.96;99376.53;343204;28;3594;-74
2023/04/07 00:39:31;;;;;;;287.08;89.20;;;;;;;7.22;50.92;99376.44;347246;28;3542;-74
2023/04/07 00:39:41;;;;;;;287.67;89.38;;;;;;;7.18;51.47;99382.63;345486;28;3987;-74
2023/04/07 00:39:52;;;;;;;288.90;88.60;;;;;;;7.19;51.61;99369.56;343748;28;5356;-74
2023/04/07 00:40:03;;;;;;;287.53;87.83;;;;;;;7.16;51.54;99368.81;342867;28;4144;-74
2023/04/07 00:40:13;;;;;;;290.13;88.53;;;;;;;7.18;51.76;99372.22;346411;28;3181;-74
2023/04/07 00:40:24;;;;;;;289.38;88.28;;;;;;;7.20;51.31;99373.03;342811;28;4110;-74
2023/04/07 00:40:34;;;;;;;290.13;88.57;;;;;;;7.19;51.44;99374.78;343812;28;3417;-75
2023/04/07 00:40:45;;;;;;;287.80;88.90;;;;;;;7.16;51.53;99369.66;341314;28;4245;-75
2023/04/07 00:40:58;;;;;;;289.17;90.07;;;;;;;7.13;51.62;99377.56;347024;28;3389;-75
2023/04/07 00:41:09;;;;;;;288.27;89.82;;;;;;;7.13;51.78;99372.34;344178;28;4178;-76
2023/04/07 00:41:19;;;;;;;287.03;88.53;;;;;;;7.15;51.59;99375.75;339713;28;1667;-75
2023/04/07 00:41:30;;;;;;;293.00;87.63;;;;;;;7.15;51.23;99385.31;338728;29;4036;-75
2023/04/07 00:41:40;;;;;;;294.07;87.67;;;;;;;7.14;51.84;99373.22;337590;28;4677;-74
2023/04/07 00:41:51;;;;;;;293.35;87.72;;;;;;;7.13;51.51;99367.16;341371;28;3867;-74
2023/04/07 00:42:03;;;;;;;285.83;89.70;;;;;;;7.16;51.84;99376.63;336285;29;4550;-74
2023/04/07 00:42:13;;;;;;;283.45;86.85;;;;;;;7.17;51.81;99378.31;341531;28;3423;-74
2023/04/07 00:42:24;;;;;;;284.77;87.47;;;;;;;7.18;51.45;99375.66;338437;28;5779;-74
2023/04/07 00:42:34;;;;;;;284.75;86.93;;;;;;;7.21;51.63;99377.31;338931;29;3872;-74
2023/04/07 00:42:45;;;;;;;285.80;88.77;;;;;;;7.20;51.54;99379.06;336619;29;4612;-74
2023/04/07 00:42:55;;;;;;;286.00;88.18;;;;;;;7.19;51.66;99371.31;338167;29;3814;-74
2023/04/07 00:43:05;;;;;;;287.60;89.07;;;;;;;7.17;51.09;99373.13;335875;29;3477;-74
2023/04/07 00:43:16;;;;;;;285.95;86.85;;;;;;;7.21;51.51;99366.91;336195;29;3926;-75
2023/04/07 00:43:26;;;;;;;285.13;86.87;;;;;;;7.21;51.52;99374.72;338237;29;3329;-76
2023/04/07 00:43:37;;;;;;;284.10;86.50;;;;;;;7.22;51.95;99381.63;339085;29;4096;-76
2023/04/07 00:43:49;;;;;;;286.13;87.97;;;;;;;7.23;51.49;99378.13;337817;29;3299;-75
2023/04/07 00:44:00;;;;;;;286.13;87.18;;;;;;;7.19;51.54;99371.31;337215;29;3738;-75
2023/04/07 00:44:11;;;;;;;285.47;87.07;;;;;;;7.16;51.27;99381.81;332392;29;3319;-75
2023/04/07 00:44:21;;;;;;;286.77;87.75;;;;;;;7.12;51.28;99369.81;334411;29;3502;-75
2023/04/07 00:44:32;;;;;;;288.00;88.38;;;;;;;7.14;51.32;99378.41;338228;29;5766;-75
2023/04/07 00:44:42;;;;;;;286.45;86.85;;;;;;;7.17;51.21;99376.56;335405;29;3986;-75
2023/04/07 00:44:53;;;;;;;286.23;86.70;;;;;;;7.16;51.30;99374.88;330517;29;3474;-75
2023/04/07 00:45:04;;;;;;;285.63;86.00;;;;;;;7.12;51.54;99365.44;330349;29;4290;-75
2023/04/07 00:45:14;;;;;;;288.17;87.40;;;;;;;7.14;51.30;99371.47;331895;29;5971;-75
2023/04/07 00:45:24;;;;;;;286.38;86.60;;;;;;;7.15;51.45;99374.91;322469;30;4638;-75
2023/04/07 00:45:35;;;;;;;289.20;89.00;;;;;;;7.17;51.35;99379.16;326328;30;3565;-75
2023/04/07 00:45:45;;;;;;;290.27;89.72;;;;;;;7.20;51.36;99386.03;324296;30;3927;-75
2023/04/07 00:45:56;;;;;;;293.97;90.83;;;;;;;7.21;51.67;99377.31;325395;30;3657;-75
2023/04/07 00:46:06;;;;;;;292.42;89.75;;;;;;;7.22;51.94;99379.88;320337;30;5374;-75
2023/04/07 00:46:18;;;;;;;289.80;88.60;;;;;;;7.25;51.44;99376.34;319777;30;3478;-75
2023/04/07 00:46:29;;;;;;;287.23;88.07;;;;;;;7.20;51.03;99378.22;317061;30;3832;-75
2023/04/07 00:46:40;;;;;;;284.80;85.85;;;;;;;7.21;51.40;99378.19;321868;30;1254;-75
2023/04/07 00:46:50;;;;;;;286.33;86.72;;;;;;;7.21;51.50;99374.72;321874;30;4245;-75
2023/04/07 00:47:00;;;;;;;284.53;85.67;;;;;;;7.22;51.56;99381.63;322551;30;3769;-75
2023/04/07 00:47:11;;;;;;;284.52;86.13;;;;;;;7.21;51.35;99378.19;316984;30;4347;-75
2023/04/07 00:47:21;;;;;;;286.37;86.93;;;;;;;7.21;51.17;99379.94;316254;30;4070;-75
2023/04/07 00:47:32;;;;;;;287.60;87.65;;;;;;;7.20;51.24;99380.81;316727;30;4426;-75
2023/04/07 00:47:42;;;;;;;289.50;90.33;;;;;;;7.23;51.12;99378.13;318737;30;3333;-75
2023/04/07 00:47:53;;;;;;;286.42;89.38;;;;;;;7.22;51.04;99382.50;313576;30;4109;-74
2023/04/07 00:48:04;;;;;;;285.93;87.97;;;;;;;7.22;51.27;99382.50;313527;31;3720;-75
2023/04/07 00:48:15;;;;;;;286.45;87.45;;;;;;;7.24;51.16;99385.91;311150;31;4151;-75
2023/04/07 00:48:25;;;;;;;285.85;87.18;;;;;;;7.26;50.98;99380.66;313654;31;3753;-75
2023/04/07 00:48:35;;;;;;;285.30;87.50;;;;;;;7.24;51.26;99385.91;314960;31;4326;-75
2023/04/07 00:48:46;;;;;;;285.37;87.63;;;;;;;7.25;51.61;99382.38;312443;31;5671;-75
2023/04/07 00:48:56;;;;;;;286.60;88.32;;;;;;;7.26;51.28;99380.66;312464;31;4197;-75
2023/04/07 00:49:07;;;;;;;286.40;89.17;;;;;;;7.24;51.61;99379.84;310743;31;3494;-75
2023/04/07 00:49:17;;;;;;;286.00;88.53;;;;;;;7.16;51.35;99377.47;313313;31;3944;-75
2023/04/07 00:49:28;;;;;;;288.10;89.70;;;;;;;7.13;51.58;99374.09;307059;31;5762;-75
2023/04/07 00:49:38;;;;;;;288.00;89.00;;;;;;;7.15;51.80;99369.72;306196;32;3328;-73
2023/04/07 00:49:48;;;;;;;288.30;90.10;;;;;;;7.14;51.32;99378.41;304132;31;5861;-75
2023/04/07 00:49:59;;;;;;;286.97;89.07;;;;;;;7.09;51.69;99377.69;305761;32;4057;-74
2023/04/07 00:50:09;;;;;;;289.48;90.95;;;;;;;7.06;51.22;99376.03;300105;32;4582;-75
2023/04/07 00:50:20;;;;;;;288.73;89.88;;;;;;;7.04;51.59;99371.78;304451;31;3575;-75
2023/04/07 00:50:30;;;;;;;289.83;90.87;;;;;;;7.01;51.64;99376.19;306112;31;4518;-74
2023/04/07 00:50:41;;;;;;;289.58;89.70;;;;;;;7.01;51.41;99383.97;310876;31;3928;-74
2023/04/07 00:50:51;;;;;;;290.23;90.30;;;;;;;6.96;51.55;99377.22;303201;32;5618;-75
2023/04/07 00:51:02;;;;;;;287.77;88.03;;;;;;;6.97;51.63;99371.97;303145;32;2516;-75
2023/04/07 00:51:12;;;;;;;289.38;88.07;;;;;;;6.97;51.33;99381.50;298167;32;4583;-74
2023/04/07 00:51:23;;;;;;;289.07;86.90;;;;;;;6.98;51.38;99381.47;302179;32;4065;-74
2023/04/07 00:51:33;;;;;;;289.47;88.27;;;;;;;6.99;51.57;99380.56;300017;32;5070;-74
2023/04/07 00:51:44;;;;;;;286.83;87.07;;;;;;;7.01;51.90;99378.78;301944;32;3465;-74
2023/04/07 00:51:55;;;;;;;287.77;89.70;;;;;;;7.00;51.91;99382.28;297459;32;5012;-74
2023/04/07 00:52:05;;;;;;;287.98;88.47;;;;;;;7.01;51.69;99383.13;295837;33;4325;-74
2023/04/07 00:52:16;;;;;;;288.27;88.75;;;;;;;7.02;51.60;99384.84;293632;33;5662;-74
2023/04/07 00:52:28;;;;;;;287.35;87.88;;;;;;;6.99;51.85;99377.13;296928;33;1247;-74
2023/04/07 00:52:39;;;;;;;289.77;89.97;;;;;;;7.04;51.48;99382.19;292816;33;4547;-73
2023/04/07 00:52:50;;;;;;;288.85;88.93;;;;;;;7.04;51.54;99377.84;290311;33;4127;-73
2023/04/07 00:53:01;;;;;;;287.05;88.32;;;;;;;6.98;51.91;99373.66;285546;34;5787;-74